Airfield :
LOGIN :

Register | Disclaimer

   EN    FR    IT 

 










Legend :    VFR   Marginal VFR   IFR   Intensive IFR   Very Intensive IFR
Visi :
Ceiling :
>= 8 km
>= 3000ft
5 to 8 km
1000 to 3000 ft
1500m to 5 km
500 to 1000 ft
800 to 1500m
200 to 500 ft
< 800m
< 200 ft
Symbols :   Thunderstorms  Fog  Heavy snow  Heavy precipitations  Wind > 20 kt
SIGMETs :     Misc.  Thunderstorms  Icing  Turbulence  Mountain Waves  Volcanic Ashes






- Airport Elevation : 681 ft
- IATA code : LBA


EGNM - Leeds Bradford

CURRENT METAR :
  • 192250Z 13008KT 1400 BR FEW001 BKN005 01/01 Q1013

EXPIRED METARs :
  • 192220Z 13008KT 1400 BR FEW001 BKN005 01/01 Q1013
  • 192150Z 14008KT 1400 R14/P1500 BR FEW001 BKN005 01/01 Q1013
  • 192120Z 14010KT 1400 R14/P1500 BR SCT001 BKN002 01/01 Q1013
  • 192050Z 13010KT 1400 R14/P1500 BR SCT001 BKN002 01/01 Q1013
  • 192020Z 14009KT 1400 R14/P1500 BR SCT001 BKN002 01/01 Q1013

TAF AMD TAF EGNM
Valid from the 19 at 18:00 until the 20 at 18:00 UTC


191826Z 1918/2018 13004KT 2000 BR SCT002 BKN006
TEMPO 1918/1920 1200 BKN002
BECMG 1920/1923 0300 FG VV///
TEMPO 1923/2009 0800 FG BKN002
BECMG 2009/2012 9999 NSW FEW012
ATIS : +44 113 250 9696 (x2489)



MET'MAP, your aeronautical weather chart ! - Copyright ORBIFLY December 2007 - Disclaimer

ORBIFLY MET'MAP TEAM :

Programming & Development : Alexandra Zaïnal
Concept & Development : Baudouin d'Aumeries
Co-Development & Prog : Marc-Olivier Méhu
Technical & hardware support : Manuel Goepfert

Contact : metmap@orbifly.com




SOURCES & CREDITS :

   NOAA